createdAt,value
2019-05-20T00:02:36.033Z,3.20
2019-05-20T00:05:23.414Z,3.20
2019-05-20T00:08:11.169Z,3.00
2019-05-20T00:10:58.564Z,3.60
2019-05-20T00:13:45.804Z,3.87
2019-05-20T00:16:32.850Z,3.63
2019-05-20T00:19:20.574Z,3.70
2019-05-20T00:22:07.887Z,4.57
2019-05-20T00:24:55.379Z,5.43
2019-05-20T00:27:42.806Z,5.23
2019-05-20T00:30:30.295Z,5.70
2019-05-20T00:33:17.710Z,5.70
2019-05-20T00:36:05.153Z,5.80
2019-05-20T00:39:10.640Z,5.40
2019-05-20T00:41:57.670Z,5.40
2019-05-20T00:44:45.092Z,5.80
2019-05-20T00:47:32.766Z,5.47
2019-05-20T00:50:20.287Z,5.03
2019-05-20T00:53:08.161Z,5.43
2019-05-20T00:55:55.877Z,5.40
2019-05-20T00:58:43.446Z,5.30
2019-05-20T01:01:30.975Z,5.30
2019-05-20T01:04:18.685Z,5.37
2019-05-20T01:07:06.201Z,5.10
2019-05-20T01:09:53.586Z,5.50
2019-05-20T01:12:40.696Z,4.77
2019-05-20T01:15:28.237Z,5.30
2019-05-20T01:18:15.629Z,5.00
2019-05-20T01:21:02.897Z,5.03
2019-05-20T01:23:50.334Z,5.20
2019-05-20T01:26:37.907Z,5.43
2019-05-20T01:29:26.082Z,5.93
2019-05-20T01:32:14.270Z,6.20
2019-05-20T01:35:02.010Z,6.17
2019-05-20T01:37:49.099Z,6.10
2019-05-20T01:40:36.302Z,6.50
2019-05-20T01:43:23.722Z,5.63
2019-05-20T01:46:11.445Z,6.67
2019-05-20T01:48:59.779Z,6.40
2019-05-20T01:51:47.628Z,7.30
2019-05-20T01:54:35.009Z,7.17
2019-05-20T01:57:22.278Z,7.00
2019-05-20T02:00:09.897Z,6.33
2019-05-20T02:02:57.285Z,7.23
2019-05-20T02:05:47.278Z,6.67
2019-05-20T02:08:34.381Z,6.73
2019-05-20T02:11:22.537Z,6.83
2019-05-20T02:14:14.257Z,5.20
2019-05-20T02:17:02.748Z,5.30
2019-05-20T02:19:50.673Z,5.67
2019-05-20T02:22:37.938Z,5.43
2019-05-20T02:25:25.611Z,6.00
2019-05-20T02:28:13.147Z,6.27
2019-05-20T02:31:01.009Z,6.10
2019-05-20T02:33:52.451Z,6.30
2019-05-20T02:36:38.239Z,5.93
2019-05-20T02:39:26.838Z,5.43
2019-05-20T02:42:14.845Z,5.73
2019-05-20T02:45:01.973Z,5.90
2019-05-20T02:47:49.130Z,5.40
2019-05-20T02:50:36.813Z,5.93
2019-05-20T02:53:24.444Z,5.80
2019-05-20T02:56:11.574Z,5.83
2019-05-20T02:58:59.207Z,5.97
2019-05-20T03:01:46.674Z,6.23
2019-05-20T03:04:33.919Z,6.20
2019-05-20T03:07:21.367Z,5.70
2019-05-20T03:10:09.466Z,5.70
2019-05-20T03:12:56.865Z,6.17
2019-05-20T03:15:44.324Z,6.60
2019-05-20T03:18:31.846Z,5.93
2019-05-20T03:21:19.434Z,5.00
2019-05-20T03:24:07.031Z,4.50
2019-05-20T03:26:54.543Z,4.50
2019-05-20T03:29:42.427Z,4.50
2019-05-20T03:32:29.812Z,4.80
2019-05-20T03:35:17.014Z,4.40
2019-05-20T03:38:04.385Z,4.03
2019-05-20T03:40:51.846Z,4.20
2019-05-20T03:43:39.303Z,4.17
2019-05-20T03:46:27.674Z,4.43
2019-05-20T03:49:15.281Z,3.63
2019-05-20T03:52:02.648Z,3.40
2019-05-20T03:54:51.130Z,4.03
2019-05-20T03:57:38.480Z,4.27
2019-05-20T04:00:43.909Z,3.90
2019-05-20T04:03:30.867Z,4.20
2019-05-20T04:06:18.164Z,4.67
2019-05-20T04:09:07.021Z,5.00
2019-05-20T04:11:55.175Z,3.40
2019-05-20T04:14:42.591Z,4.30
2019-05-20T04:17:30.098Z,4.27
2019-05-20T04:20:17.787Z,3.30
2019-05-20T04:23:05.499Z,2.80
2019-05-20T04:25:54.703Z,2.63
2019-05-20T04:28:42.276Z,2.57
2019-05-20T04:31:30.704Z,2.60
2019-05-20T04:34:17.984Z,3.23
2019-05-20T04:37:05.786Z,3.63
2019-05-20T04:39:53.388Z,3.40
2019-05-20T04:42:41.299Z,3.30
2019-05-20T04:45:29.063Z,3.20
2019-05-20T04:48:16.093Z,3.13
2019-05-20T04:51:03.733Z,3.10
2019-05-20T04:53:50.801Z,3.00
2019-05-20T04:56:38.511Z,3.63
2019-05-20T04:59:25.782Z,2.80
2019-05-20T05:02:12.893Z,2.20
2019-05-20T05:05:00.406Z,2.40
2019-05-20T05:07:48.321Z,2.33
2019-05-20T05:10:36.405Z,2.00
2019-05-20T05:13:23.805Z,1.20
2019-05-20T05:16:11.369Z,1.40
2019-05-20T05:18:58.830Z,1.73
2019-05-20T05:21:46.250Z,1.30
2019-05-20T05:24:34.297Z,1.10
2019-05-20T05:27:21.684Z,0.90
2019-05-20T05:30:09.590Z,0.93
2019-05-20T05:32:57.089Z,1.00
2019-05-20T05:35:52.691Z,0.73
2019-05-20T05:38:34.046Z,1.17
2019-05-20T05:41:21.693Z,0.87
2019-05-20T05:44:08.953Z,0.77
2019-05-20T05:46:56.428Z,0.90
2019-05-20T05:49:43.983Z,0.80
2019-05-20T05:52:30.995Z,0.60
2019-05-20T05:55:18.323Z,0.53
2019-05-20T05:58:08.546Z,0.53
2019-05-20T06:00:55.077Z,0.80
2019-05-20T06:03:43.606Z,0.57
2019-05-20T06:06:32.692Z,0.60
2019-05-20T06:09:20.504Z,0.50
2019-05-20T06:12:07.942Z,0.40
2019-05-20T06:14:55.200Z,0.43
2019-05-20T06:17:42.583Z,0.53
2019-05-20T06:20:30.131Z,0.50
2019-05-20T06:23:17.369Z,0.40
2019-05-20T06:26:05.053Z,0.50
2019-05-20T06:28:52.568Z,0.60
2019-05-20T06:31:39.648Z,0.50
2019-05-20T06:34:27.318Z,0.50
2019-05-20T06:37:16.787Z,0.40
2019-05-20T06:40:04.526Z,0.70
2019-05-20T06:42:51.567Z,0.60
2019-05-20T06:45:39.090Z,0.50
2019-05-20T06:48:26.581Z,0.40
2019-05-20T06:51:13.710Z,0.50
2019-05-20T06:54:00.736Z,0.87
2019-05-20T06:56:48.547Z,1.10
2019-05-20T06:59:36.329Z,1.00
2019-05-20T07:02:23.955Z,1.37
2019-05-20T07:05:11.394Z,1.30
2019-05-20T07:08:01.307Z,1.50
2019-05-20T07:10:48.668Z,1.03
2019-05-20T07:13:36.315Z,1.30
2019-05-20T07:16:23.353Z,1.17
2019-05-20T07:19:10.626Z,0.93
2019-05-20T07:21:58.014Z,1.10
2019-05-20T07:24:45.336Z,0.77
2019-05-20T07:27:34.113Z,0.70
2019-05-20T07:30:22.060Z,0.60
2019-05-20T07:33:09.684Z,0.40
2019-05-20T07:35:57.310Z,0.50
2019-05-20T07:38:45.138Z,0.50
2019-05-20T07:41:32.653Z,0.43
2019-05-20T07:44:20.307Z,0.50
2019-05-20T07:47:10.947Z,0.63
2019-05-20T07:49:56.954Z,0.70
2019-05-20T07:52:44.731Z,0.60
2019-05-20T07:55:35.040Z,0.70
2019-05-20T07:58:24.437Z,0.90
2019-05-20T08:01:13.086Z,0.77
2019-05-20T08:04:00.580Z,1.00
2019-05-20T08:06:48.155Z,1.17
2019-05-20T08:09:41.078Z,1.77
2019-05-20T08:12:25.012Z,1.43
2019-05-20T08:15:12.533Z,2.30
2019-05-20T08:18:00.120Z,2.10
2019-05-20T08:20:47.394Z,2.77
2019-05-20T08:23:34.796Z,2.70
2019-05-20T08:26:22.235Z,3.13
2019-05-20T08:29:10.112Z,3.50
2019-05-20T08:31:57.503Z,3.90
2019-05-20T08:34:44.995Z,4.10
2019-05-20T08:37:44.972Z,2.83
2019-05-20T08:40:21.733Z,2.50
2019-05-20T08:43:09.151Z,2.50
2019-05-20T08:45:56.621Z,2.40
2019-05-20T08:48:44.203Z,2.30
2019-05-20T08:51:31.521Z,1.90
2019-05-20T08:54:18.862Z,1.97
2019-05-20T08:57:06.314Z,2.03
2019-05-20T08:59:54.018Z,2.20
2019-05-20T09:02:41.340Z,2.10
2019-05-20T09:05:28.947Z,1.73
2019-05-20T09:08:16.628Z,2.10
2019-05-20T09:11:04.387Z,1.83
2019-05-20T09:13:51.742Z,1.60
2019-05-20T09:16:39.221Z,1.60
2019-05-20T09:19:27.399Z,1.17
2019-05-20T09:22:17.210Z,3.03
2019-05-20T09:25:06.792Z,1.50
2019-05-20T09:27:54.117Z,1.27
2019-05-20T09:30:41.723Z,0.90
2019-05-20T09:33:30.129Z,0.80
2019-05-20T09:36:17.475Z,0.80
2019-05-20T09:39:06.185Z,0.90
2019-05-20T09:41:53.877Z,0.80
2019-05-20T09:44:40.984Z,0.73
2019-05-20T09:47:28.705Z,0.87
2019-05-20T09:50:16.063Z,1.07
2019-05-20T09:53:06.881Z,1.10
2019-05-20T09:55:52.717Z,0.97
2019-05-20T09:58:39.894Z,1.10
2019-05-20T10:01:27.534Z,1.73
2019-05-20T10:04:15.229Z,0.87
2019-05-20T10:07:04.067Z,0.80
2019-05-20T10:09:52.437Z,0.60
2019-05-20T10:12:46.580Z,0.80
2019-05-20T10:15:31.676Z,0.50
2019-05-20T10:18:36.118Z,0.60
2019-05-20T10:21:08.477Z,0.80
2019-05-20T10:23:55.787Z,0.90
2019-05-20T10:26:43.249Z,1.00
2019-05-20T10:29:30.810Z,0.93
2019-05-20T10:32:18.754Z,0.70
2019-05-20T10:35:06.415Z,0.83
2019-05-20T10:37:54.109Z,0.80
2019-05-20T10:40:41.931Z,0.90
2019-05-20T10:43:29.281Z,0.90
2019-05-20T10:46:16.765Z,1.13
2019-05-20T10:49:04.082Z,1.10
2019-05-20T10:51:51.493Z,0.93
2019-05-20T10:54:38.883Z,0.70
2019-05-20T10:57:26.195Z,0.90
2019-05-20T11:00:13.839Z,1.00
2019-05-20T11:03:01.177Z,0.90
2019-05-20T11:05:48.588Z,1.03
2019-05-20T11:08:35.806Z,1.00
2019-05-20T11:11:23.289Z,1.10
2019-05-20T11:14:11.025Z,0.90
2019-05-20T11:16:58.701Z,0.80
2019-05-20T11:19:46.511Z,1.00
2019-05-20T11:22:34.282Z,0.90
2019-05-20T11:25:21.725Z,0.80
2019-05-20T11:28:11.819Z,1.10
2019-05-20T11:30:58.371Z,1.27
2019-05-20T11:33:46.131Z,1.27
2019-05-20T11:36:33.524Z,1.00
2019-05-20T11:39:32.645Z,0.70
2019-05-20T11:42:10.461Z,1.00
2019-05-20T11:44:57.884Z,0.90
2019-05-20T11:47:45.523Z,0.70
2019-05-20T11:50:32.856Z,1.00
2019-05-20T11:53:20.666Z,0.70
2019-05-20T11:56:08.058Z,0.57
2019-05-20T11:58:55.446Z,0.80
2019-05-20T12:01:42.434Z,0.60
2019-05-20T12:04:29.509Z,0.60
2019-05-20T12:07:16.978Z,0.70
2019-05-20T12:10:04.615Z,0.70
2019-05-20T12:12:52.522Z,0.80
2019-05-20T12:15:40.038Z,0.40
2019-05-20T12:18:27.670Z,0.63
2019-05-20T12:21:15.023Z,1.67
2019-05-20T12:24:02.593Z,0.60
2019-05-20T12:26:49.980Z,0.50
2019-05-20T12:29:37.357Z,0.60
2019-05-20T12:32:24.998Z,0.50
2019-05-20T12:35:12.897Z,0.50
2019-05-20T12:38:00.543Z,0.50
2019-05-20T12:40:48.228Z,0.50
2019-05-20T12:43:36.029Z,0.50
2019-05-20T12:46:23.593Z,0.47
2019-05-20T12:49:11.410Z,0.47
2019-05-20T12:51:58.994Z,0.67
2019-05-20T12:54:46.482Z,0.40
2019-05-20T12:57:34.226Z,0.50
2019-05-20T13:00:22.200Z,0.40
2019-05-20T13:03:09.318Z,0.30
2019-05-20T13:05:56.734Z,0.37
2019-05-20T13:08:44.074Z,0.50
2019-05-20T13:11:31.562Z,0.60
2019-05-20T13:14:19.256Z,0.50
2019-05-20T13:17:06.855Z,0.30
2019-05-20T13:19:54.195Z,0.53
2019-05-20T13:22:41.498Z,0.40
2019-05-20T13:25:29.010Z,0.70
2019-05-20T13:28:16.179Z,0.33
2019-05-20T13:31:03.602Z,1.10
2019-05-20T13:33:51.160Z,0.60
2019-05-20T13:36:38.670Z,0.47
2019-05-20T13:39:26.259Z,0.40
2019-05-20T13:42:13.680Z,0.40
2019-05-20T13:45:01.096Z,0.40
2019-05-20T13:47:48.581Z,0.40
2019-05-20T13:50:36.137Z,0.50
2019-05-20T13:53:23.776Z,0.50
2019-05-20T13:56:11.261Z,0.40
2019-05-20T13:58:58.345Z,0.50
2019-05-20T14:01:46.258Z,0.70
2019-05-20T14:04:34.091Z,0.57
2019-05-20T14:07:21.335Z,0.43
2019-05-20T14:10:08.909Z,0.60
2019-05-20T14:12:56.369Z,0.30
2019-05-20T14:15:43.774Z,0.57
2019-05-20T14:18:30.851Z,0.63
2019-05-20T14:21:18.391Z,0.63
2019-05-20T14:24:06.279Z,0.50
2019-05-20T14:26:53.861Z,0.50
2019-05-20T14:29:41.556Z,0.60
2019-05-20T14:32:29.303Z,0.53
2019-05-20T14:35:16.872Z,0.57
2019-05-20T14:38:03.903Z,0.60
2019-05-20T14:40:51.421Z,0.60
2019-05-20T14:43:38.925Z,0.50
2019-05-20T14:46:26.214Z,0.50
2019-05-20T14:49:14.050Z,0.57
2019-05-20T14:52:01.382Z,0.60
2019-05-20T14:54:48.756Z,0.60
2019-05-20T14:57:36.387Z,0.50
2019-05-20T15:00:24.058Z,0.63
2019-05-20T15:03:11.638Z,0.70
2019-05-20T15:05:59.063Z,0.67
2019-05-20T15:08:46.572Z,0.57
2019-05-20T15:11:38.035Z,0.50
2019-05-20T15:14:22.935Z,0.60
2019-05-20T15:17:10.511Z,0.60
2019-05-20T15:19:57.938Z,0.60
2019-05-20T15:22:45.395Z,0.70
2019-05-20T15:25:33.353Z,0.67
2019-05-20T15:28:20.925Z,0.70
2019-05-20T15:31:08.233Z,0.67
2019-05-20T15:33:55.718Z,0.67
2019-05-20T15:36:43.242Z,0.80
2019-05-20T15:39:30.869Z,0.60
2019-05-20T15:42:18.249Z,0.80
2019-05-20T15:45:07.463Z,0.60
2019-05-20T15:47:54.959Z,0.60
2019-05-20T15:50:43.326Z,0.43
2019-05-20T15:53:31.119Z,0.73
2019-05-20T15:56:18.624Z,0.67
2019-05-20T15:59:05.924Z,0.53
2019-05-20T16:01:54.331Z,0.57
2019-05-20T16:04:41.746Z,0.40
2019-05-20T16:07:29.358Z,0.70
2019-05-20T16:10:17.027Z,0.60
2019-05-20T16:13:06.626Z,0.67
2019-05-20T16:15:54.308Z,0.70
2019-05-20T16:18:42.021Z,0.80
2019-05-20T16:21:29.559Z,0.93
2019-05-20T16:24:17.302Z,0.70
2019-05-20T16:27:05.153Z,0.60
2019-05-20T16:30:05.430Z,0.80
2019-05-20T16:32:42.044Z,1.03
2019-05-20T16:35:29.516Z,0.90
2019-05-20T16:38:17.401Z,1.10
2019-05-20T16:41:05.096Z,1.10
2019-05-20T16:43:52.387Z,1.10
2019-05-20T16:46:39.633Z,0.77
2019-05-20T16:49:29.016Z,1.10
2019-05-20T16:52:16.934Z,1.13
2019-05-20T16:55:06.735Z,0.70
2019-05-20T16:57:54.059Z,0.60
2019-05-20T17:00:41.269Z,0.90
2019-05-20T17:03:29.250Z,1.07
2019-05-20T17:06:16.581Z,0.80
2019-05-20T17:09:04.619Z,0.97
2019-05-20T17:11:52.726Z,0.93
2019-05-20T17:14:40.218Z,1.10
2019-05-20T17:17:27.562Z,0.80
2019-05-20T17:20:15.122Z,1.20
2019-05-20T17:23:02.448Z,1.07
2019-05-20T17:25:51.226Z,1.30
2019-05-20T17:28:38.783Z,1.10
2019-05-20T17:31:26.838Z,1.20
2019-05-20T17:34:14.893Z,1.20
2019-05-20T17:37:02.524Z,1.30
2019-05-20T17:39:50.350Z,2.27
2019-05-20T17:42:37.842Z,1.80
2019-05-20T17:45:25.413Z,1.30
2019-05-20T17:48:12.751Z,1.63
2019-05-20T17:51:01.262Z,1.67
2019-05-20T17:53:48.741Z,1.80
2019-05-20T17:56:36.028Z,2.13
2019-05-20T17:59:23.371Z,1.80
2019-05-20T18:02:12.439Z,1.37
2019-05-20T18:04:59.740Z,1.60
2019-05-20T18:07:47.970Z,1.20
2019-05-20T18:10:35.234Z,1.30
2019-05-20T18:13:22.625Z,1.27
2019-05-20T18:16:10.638Z,1.30
2019-05-20T18:18:58.141Z,1.30
2019-05-20T18:21:45.210Z,0.97
2019-05-20T18:24:34.421Z,1.13
2019-05-20T18:27:22.278Z,1.10
2019-05-20T18:30:09.912Z,0.97
2019-05-20T18:32:57.264Z,0.90
2019-05-20T18:35:44.738Z,1.37
2019-05-20T18:38:32.666Z,1.20
2019-05-20T18:41:20.193Z,1.37
2019-05-20T18:44:13.168Z,1.30
2019-05-20T18:46:59.440Z,1.37
2019-05-20T18:49:47.189Z,1.30
2019-05-20T18:52:35.118Z,1.20
2019-05-20T18:55:22.486Z,1.30
2019-05-20T18:58:09.846Z,1.30
2019-05-20T19:00:58.221Z,2.60
2019-05-20T19:03:45.714Z,2.37
2019-05-20T19:06:33.320Z,2.80
2019-05-20T19:09:21.102Z,2.87
2019-05-20T19:12:09.206Z,2.73
2019-05-20T19:14:56.377Z,2.83
2019-05-20T19:17:44.120Z,2.50
2019-05-20T19:20:32.206Z,2.83
2019-05-20T19:23:19.854Z,2.73
2019-05-20T19:26:07.174Z,3.10
2019-05-20T19:28:54.548Z,3.97
2019-05-20T19:31:41.916Z,4.23
2019-05-20T19:34:29.214Z,3.97
2019-05-20T19:37:20.619Z,4.00
2019-05-20T19:40:13.034Z,4.30
2019-05-20T19:43:00.209Z,4.33
2019-05-20T19:45:48.376Z,5.90
2019-05-20T19:48:37.227Z,5.70
2019-05-20T19:51:28.406Z,5.27
2019-05-20T19:54:17.619Z,5.40
2019-05-20T19:57:07.241Z,5.83
2019-05-20T20:00:04.904Z,5.73
2019-05-20T20:02:54.550Z,6.33
2019-05-20T20:05:46.527Z,7.17
2019-05-20T20:08:42.680Z,7.53
2019-05-20T20:11:33.089Z,8.27
2019-05-20T20:14:25.095Z,7.67
2019-05-20T20:17:13.170Z,7.40
2019-05-20T20:20:04.047Z,8.30
2019-05-20T20:22:54.561Z,8.07
2019-05-20T20:25:43.333Z,8.67
2019-05-20T20:28:30.553Z,7.60
2019-05-20T20:31:25.889Z,8.57
2019-05-20T20:34:13.409Z,8.40
2019-05-20T20:37:06.119Z,7.93
2019-05-20T20:39:53.853Z,8.20
2019-05-20T20:42:42.644Z,8.57
2019-05-20T20:45:34.378Z,8.10
2019-05-20T20:48:22.479Z,7.83
2019-05-20T20:51:10.907Z,8.67
2019-05-20T20:54:03.303Z,8.03
2019-05-20T20:56:55.440Z,8.47
2019-05-20T20:59:50.265Z,8.40
2019-05-20T21:02:50.811Z,8.23
2019-05-20T21:05:25.940Z,7.37
2019-05-20T21:08:15.722Z,6.60
2019-05-20T21:11:14.722Z,10.53
2019-05-20T21:14:05.238Z,7.33
2019-05-20T21:16:53.253Z,7.30
2019-05-20T21:19:40.594Z,7.60
2019-05-20T21:22:28.529Z,6.73
2019-05-20T21:25:16.045Z,7.03
2019-05-20T21:28:03.693Z,7.10
2019-05-20T21:30:51.379Z,6.30
2019-05-20T21:33:38.751Z,6.30
2019-05-20T21:36:26.334Z,6.50
2019-05-20T21:39:14.226Z,6.17
2019-05-20T21:42:01.398Z,7.00
2019-05-20T21:44:49.033Z,5.83
2019-05-20T21:47:36.187Z,5.80
2019-05-20T21:50:23.756Z,5.67
2019-05-20T21:53:11.410Z,5.93
2019-05-20T21:55:58.781Z,5.70
2019-05-20T21:58:46.218Z,5.47
2019-05-20T22:01:33.942Z,5.30
2019-05-20T22:04:21.247Z,4.77
2019-05-20T22:07:08.701Z,5.23
2019-05-20T22:09:56.474Z,5.20
2019-05-20T22:12:43.911Z,5.27
2019-05-20T22:15:31.447Z,4.70
2019-05-20T22:18:19.303Z,4.40
2019-05-20T22:21:08.379Z,4.23
2019-05-20T22:24:01.772Z,4.97
2019-05-20T22:26:49.688Z,4.63
2019-05-20T22:29:37.257Z,4.87
2019-05-20T22:32:25.012Z,4.40
2019-05-20T22:35:12.714Z,4.33
2019-05-20T22:37:59.995Z,4.40
2019-05-20T22:40:47.394Z,4.43
2019-05-20T22:43:34.528Z,4.50
2019-05-20T22:46:21.984Z,4.47
2019-05-20T22:49:09.675Z,5.40
2019-05-20T22:51:57.010Z,4.47
2019-05-20T22:54:44.520Z,4.77
2019-05-20T22:57:32.006Z,4.87
2019-05-20T23:00:19.725Z,5.03
2019-05-20T23:03:07.281Z,4.67
2019-05-20T23:05:54.797Z,4.17
2019-05-20T23:08:42.444Z,4.80
2019-05-20T23:11:30.489Z,5.23
2019-05-20T23:14:18.283Z,4.63
2019-05-20T23:17:05.806Z,4.10
2019-05-20T23:19:53.243Z,4.17
2019-05-20T23:22:40.561Z,4.83
2019-05-20T23:25:28.398Z,4.90
2019-05-20T23:28:16.199Z,5.33
2019-05-20T23:31:03.837Z,4.93
2019-05-20T23:33:51.551Z,5.10
2019-05-20T23:36:39.626Z,4.87
2019-05-20T23:39:27.082Z,4.73
2019-05-20T23:42:14.217Z,4.23
2019-05-20T23:45:01.845Z,4.03
2019-05-20T23:47:48.986Z,4.20
2019-05-20T23:50:36.760Z,4.37
2019-05-20T23:53:24.084Z,3.67
2019-05-20T23:56:11.555Z,4.13
2019-05-20T23:58:58.746Z,3.97
